Time;durP1;ratioP1;P1;durP2;ratioP2;P2;SDS_P1;SDS_P2;PMS_P1;PMS_P2;Temp;Humidity;BMP_temperature;BMP_pressure;BME280_temperature;BME280_humidity;BME280_pressure;Samples;Min_cycle;Max_cycle;Signal;HPM_P1;HPM_P2
2023/06/06 00:02:21;;;;;;;43.20;4.03;;;;;;;23.11;54.20;99679.84;7314433;19;129622;-42
2023/06/06 00:04:49;;;;;;;63.53;4.43;;;;;;;23.11;54.82;99680.69;7313657;19;129725;-41
2023/06/06 00:07:19;;;;;;;74.20;5.03;;;;;;;23.11;54.36;99677.22;7314317;19;130759;-41
2023/06/06 00:09:45;;;;;;;26.27;2.80;;;;;;;23.00;53.56;99659.09;7316219;19;129245;-42
2023/06/06 00:12:12;;;;;;;33.42;3.15;;;;;;;23.09;54.67;99674.75;7314292;19;129962;-38
2023/06/06 00:14:40;;;;;;;58.55;4.13;;;;;;;23.09;54.73;99666.06;7314606;19;128997;-41
2023/06/06 00:17:06;;;;;;;56.28;4.28;;;;;;;23.10;54.66;99662.47;7313886;19;132715;-40
2023/06/06 00:19:32;;;;;;;32.95;2.97;;;;;;;23.10;54.63;99665.94;7316824;19;129787;-40
2023/06/06 00:21:58;;;;;;;33.07;3.20;;;;;;;23.09;54.83;99669.50;7314382;19;129962;-41
2023/06/06 00:24:24;;;;;;;71.47;5.20;;;;;;;23.08;54.23;99667.03;7315565;19;129030;-41
2023/06/06 00:26:50;;;;;;;31.77;3.17;;;;;;;23.08;54.67;99651.31;7315416;19;129313;-41
2023/06/06 00:29:15;;;;;;;14.88;2.10;;;;;;;23.08;54.34;99664.41;7315732;19;129310;-41
2023/06/06 00:31:40;;;;;;;104.60;7.00;;;;;;;22.99;54.41;99636.47;7314236;19;129222;-42
2023/06/06 00:34:06;;;;;;;61.80;4.47;;;;;;;23.09;54.56;99655.56;7315100;19;129088;-39
2023/06/06 00:36:31;;;;;;;32.33;3.17;;;;;;;23.00;54.87;99635.47;7316931;19;129192;-40
2023/06/06 00:38:56;;;;;;;34.58;3.42;;;;;;;23.09;54.90;99653.78;7310093;19;130357;-39
2023/06/06 00:41:22;;;;;;;41.13;3.83;;;;;;;23.00;55.03;99627.63;7314264;19;129256;-40
2023/06/06 00:43:47;;;;;;;51.70;3.63;;;;;;;23.10;54.06;99644.13;7312752;19;129115;-39
2023/06/06 00:46:13;;;;;;;38.23;3.27;;;;;;;23.09;54.73;99645.91;7313331;19;128848;-41
2023/06/06 00:48:39;;;;;;;23.17;2.90;;;;;;;23.09;55.53;99645.06;7314735;19;129384;-39
2023/06/06 00:51:05;;;;;;;35.67;3.20;;;;;;;23.02;55.12;99631.72;7314981;19;129192;-40
2023/06/06 00:53:30;;;;;;;49.70;3.87;;;;;;;23.07;55.11;99644.41;7313083;19;129651;-39
2023/06/06 00:55:57;;;;;;;33.08;3.53;;;;;;;23.09;54.96;99642.44;7314943;19;129398;-41
2023/06/06 00:58:23;;;;;;;50.05;4.00;;;;;;;23.11;54.66;99651.84;7310230;19;130678;-41
2023/06/06 01:00:49;;;;;;;44.30;3.72;;;;;;;23.10;54.49;99644.94;7312589;19;130816;-42
2023/06/06 01:03:15;;;;;;;41.22;3.15;;;;;;;23.11;54.60;99648.38;7313695;19;132040;-38
2023/06/06 01:05:40;;;;;;;29.97;3.00;;;;;;;23.11;54.98;99649.22;7314921;19;129436;-38
2023/06/06 01:08:07;;;;;;;48.93;4.37;;;;;;;23.11;55.50;99649.22;7313941;19;129655;-40
2023/06/06 01:10:34;;;;;;;81.88;5.47;;;;;;;23.11;54.92;99645.75;7314320;19;129551;-40
2023/06/06 01:13:15;;;;;;;33.72;3.17;;;;;;;23.13;55.66;99649.06;7315558;19;128934;-41
2023/06/06 01:16:05;;;;;;;30.15;2.95;;;;;;;22.99;55.80;99625.97;7313811;19;129177;-40
2023/06/06 01:18:31;;;;;;;51.58;3.92;;;;;;;23.10;55.46;99646.75;7312137;19;130307;-40
2023/06/06 01:20:58;;;;;;;36.45;3.55;;;;;;;23.12;55.03;99636.94;7313201;19;129286;-38
2023/06/06 01:23:27;;;;;;;52.07;4.80;;;;;;;23.12;54.79;99634.31;7312709;19;129821;-39
2023/06/06 01:25:53;;;;;;;60.22;4.47;;;;;;;23.10;55.09;99638.88;7312358;19;130008;-40
2023/06/06 01:28:18;;;;;;;27.85;2.80;;;;;;;22.99;55.42;99616.28;7314332;19;129006;-41
2023/06/06 01:30:45;;;;;;;40.53;3.50;;;;;;;23.12;55.21;99640.34;7311679;19;129610;-39
2023/06/06 01:33:17;;;;;;;;;;;;;;;23.19;55.19;99636.19;7314038;19;130441;-41
2023/06/06 01:35:55;;;;;;;44.03;3.83;;;;;;;23.13;55.16;99639.41;7311687;19;129203;-41
2023/06/06 01:38:24;;;;;;;65.88;4.82;;;;;;;23.11;55.35;99638.72;7311208;19;129553;-40
2023/06/06 01:40:52;;;;;;;66.05;5.00;;;;;;;23.10;55.04;99638.88;7313418;19;130547;-39
2023/06/06 01:43:22;;;;;;;31.88;3.13;;;;;;;23.11;55.42;99640.50;7314226;19;129378;-39
2023/06/06 01:45:49;;;;;;;61.97;4.38;;;;;;;23.08;54.88;99630.31;7312689;19;129865;-37
2023/06/06 01:48:15;;;;;;;;;;;;;;;23.18;55.56;99633.72;7313502;19;129679;-41
2023/06/06 01:50:41;;;;;;;28.73;3.10;;;;;;;23.12;54.35;99636.94;7313610;19;129099;-39
2023/06/06 01:53:07;;;;;;;54.60;4.87;;;;;;;23.10;54.89;99638.88;7311278;19;129431;-41
2023/06/06 01:55:32;;;;;;;68.38;5.03;;;;;;;23.01;54.78;99624.00;7311213;19;129088;-39
2023/06/06 01:57:58;;;;;;;45.63;3.70;;;;;;;23.12;55.04;99642.19;7310728;19;129637;-42
2023/06/06 02:00:23;;;;;;;66.50;5.07;;;;;;;23.10;55.37;99642.34;7312531;19;130500;-40
2023/06/06 02:02:49;;;;;;;31.27;3.15;;;;;;;23.10;55.70;99649.38;7311670;19;128866;-40
2023/06/06 02:05:15;;;;;;;33.75;3.33;;;;;;;23.11;55.76;99637.88;7312530;19;129114;-40
2023/06/06 02:07:41;;;;;;;62.60;4.83;;;;;;;23.12;55.35;99647.44;7310179;19;130079;-37
2023/06/06 02:10:06;;;;;;;25.40;3.03;;;;;;;23.10;55.63;99641.50;7312318;19;129394;-40
2023/06/06 02:12:32;;;;;;;33.47;3.60;;;;;;;23.11;55.18;99648.38;7311296;19;128883;-42
2023/06/06 02:14:58;;;;;;;36.97;3.33;;;;;;;23.09;55.76;99647.69;7311138;19;129805;-39
2023/06/06 02:17:24;;;;;;;66.35;4.95;;;;;;;23.09;55.30;99645.06;7309475;19;130681;-41
2023/06/06 02:19:49;;;;;;;36.75;3.45;;;;;;;23.11;55.17;99645.75;7313800;19;129449;-40
2023/06/06 02:22:14;;;;;;;40.50;3.65;;;;;;;23.08;54.73;99639.03;7310840;19;129040;-39
2023/06/06 02:24:43;;;;;;;41.03;3.58;;;;;;;23.02;55.39;99625.69;7309813;19;130926;-40
2023/06/06 02:27:11;;;;;;;65.75;4.68;;;;;;;23.11;55.34;99643.97;7312477;19;129307;-38
2023/06/06 02:29:36;;;;;;;57.38;4.75;;;;;;;23.09;55.22;99642.44;7311926;19;129912;-41
2023/06/06 02:32:03;;;;;;;39.57;3.83;;;;;;;23.08;55.87;99635.56;7311470;19;128960;-40
2023/06/06 02:34:29;;;;;;;59.42;4.60;;;;;;;23.11;55.58;99640.50;7307735;19;129291;-39
2023/06/06 02:36:57;;;;;;;56.05;4.30;;;;;;;23.11;55.26;99632.66;7311478;19;130745;-41
2023/06/06 02:39:25;;;;;;;30.98;3.10;;;;;;;23.11;55.46;99635.25;7308067;19;129342;-39
2023/06/06 02:41:51;;;;;;;34.53;3.13;;;;;;;23.09;55.72;99632.78;7312577;19;129524;-41
2023/06/06 02:44:17;;;;;;;22.90;2.80;;;;;;;23.11;55.42;99640.50;7308834;19;131250;-40
2023/06/06 02:46:43;;;;;;;48.28;3.92;;;;;;;23.11;55.17;99635.25;7312111;19;129179;-41
2023/06/06 02:49:08;;;;;;;52.43;4.23;;;;;;;23.09;55.67;99626.72;7310653;19;130775;-38
2023/06/06 02:51:35;;;;;;;20.77;2.80;;;;;;;23.11;55.62;99635.25;7312611;19;129152;-41
2023/06/06 02:54:01;;;;;;;40.25;3.72;;;;;;;23.10;55.56;99628.38;7308426;19;130230;-41
2023/06/06 02:56:26;;;;;;;63.55;5.03;;;;;;;23.11;55.01;99635.25;7311684;19;129158;-38
2023/06/06 02:58:52;;;;;;;33.67;3.40;;;;;;;23.11;55.83;99636.09;7308129;19;130017;-41
2023/06/06 03:01:20;;;;;;;42.27;4.03;;;;;;;23.10;55.39;99628.38;7310548;19;128842;-40
2023/06/06 03:03:47;;;;;;;44.17;3.63;;;;;;;23.10;55.34;99631.00;7309006;19;129254;-40
2023/06/06 03:06:12;;;;;;;52.53;4.20;;;;;;;23.11;55.23;99632.66;7311054;19;129116;-39
2023/06/06 03:08:42;;;;;;;56.27;4.23;;;;;;;23.03;55.75;99624.69;7310823;19;131501;-42
2023/06/06 03:11:08;;;;;;;36.65;3.42;;;;;;;23.11;56.13;99638.72;7309820;19;129633;-42
2023/06/06 03:13:33;;;;;;;42.67;3.95;;;;;;;23.07;55.85;99626.06;7309743;19;129913;-40
2023/06/06 03:15:59;;;;;;;50.83;4.47;;;;;;;23.12;55.34;99631.69;7310871;19;129026;-42
2023/06/06 03:18:26;;;;;;;62.65;4.90;;;;;;;23.12;55.46;99642.19;7308749;19;129440;-38
2023/06/06 03:20:51;;;;;;;31.20;3.42;;;;;;;23.08;55.75;99633.78;7308346;19;130152;-40
2023/06/06 03:23:17;;;;;;;27.70;3.08;;;;;;;23.11;55.36;99637.88;7315696;19;129360;-41
2023/06/06 03:25:44;;;;;;;51.57;4.47;;;;;;;23.11;55.78;99637.88;7317958;19;129164;-40
2023/06/06 03:28:10;;;;;;;33.85;3.65;;;;;;;23.10;55.45;99638.88;7317437;19;129713;-40
2023/06/06 03:30:35;;;;;;;44.17;4.03;;;;;;;23.08;55.50;99638.19;7316026;19;130469;-42
2023/06/06 03:33:01;;;;;;;124.18;8.15;;;;;;;23.03;55.37;99622.06;7315630;19;129068;-41
2023/06/06 03:35:28;;;;;;;48.00;3.93;;;;;;;23.11;55.45;99640.50;7317179;19;129606;-40
2023/06/06 03:37:55;;;;;;;45.67;4.07;;;;;;;23.12;56.08;99637.75;7315259;19;130931;-42
2023/06/06 03:40:22;;;;;;;34.40;3.85;;;;;;;23.11;56.13;99645.75;7315052;19;128995;-39
2023/06/06 03:42:51;;;;;;;30.80;3.10;;;;;;;23.00;55.07;99627.63;7316735;19;129029;-42
2023/06/06 03:45:17;;;;;;;54.88;4.65;;;;;;;23.10;55.58;99638.88;7312354;19;129102;-40
2023/06/06 03:47:43;;;;;;;31.95;3.08;;;;;;;23.11;55.62;99640.50;7315385;19;130408;-40
2023/06/06 03:50:09;;;;;;;31.77;3.20;;;;;;;23.12;55.60;99644.81;7316759;19;129148;-40
2023/06/06 03:52:34;;;;;;;17.17;2.43;;;;;;;23.12;56.20;99639.56;7317467;19;129409;-38
2023/06/06 03:55:00;;;;;;;49.88;4.13;;;;;;;23.01;55.29;99626.63;7315815;19;129661;-40
2023/06/06 03:57:26;;;;;;;33.67;3.63;;;;;;;23.12;55.71;99642.19;7316910;19;131215;-40
2023/06/06 03:59:51;;;;;;;37.17;3.53;;;;;;;23.11;54.92;99645.75;7317123;19;128956;-38
2023/06/06 04:02:17;;;;;;;168.37;10.37;;;;;;;23.09;56.07;99640.66;7314832;19;129028;-40
2023/06/06 04:04:43;;;;;;;25.55;3.08;;;;;;;23.12;55.67;99642.97;7315093;19;129473;-41
2023/06/06 04:07:09;;;;;;;42.10;3.63;;;;;;;23.05;56.04;99625.38;7315960;19;130304;-41
2023/06/06 04:09:35;;;;;;;39.27;3.73;;;;;;;23.12;55.56;99634.31;7315497;19;129318;-41
2023/06/06 04:12:01;;;;;;;43.78;3.95;;;;;;;23.09;55.18;99631.97;7316488;19;129060;-41
2023/06/06 04:14:27;;;;;;;49.03;4.07;;;;;;;23.13;56.08;99643.81;7311575;19;129238;-40
2023/06/06 04:16:53;;;;;;;28.77;3.13;;;;;;;23.12;55.94;99639.56;7316727;19;129753;-41
2023/06/06 04:19:18;;;;;;;30.48;3.10;;;;;;;23.11;55.84;99638.72;7314709;19;128854;-38
2023/06/06 04:21:44;;;;;;;71.28;5.55;;;;;;;23.11;55.61;99638.72;7315631;19;129239;-40
2023/06/06 04:24:11;;;;;;;55.30;4.90;;;;;;;23.07;55.68;99629.50;7314831;19;129519;-41
2023/06/06 04:26:37;;;;;;;39.10;3.88;;;;;;;23.10;55.86;99636.25;7312795;19;129348;-42
2023/06/06 04:29:02;;;;;;;71.10;5.27;;;;;;;23.09;55.88;99629.34;7313103;19;130682;-39
2023/06/06 04:31:32;;;;;;;57.80;4.73;;;;;;;23.11;55.72;99635.25;7314475;19;129340;-39
2023/06/06 04:34:01;;;;;;;74.75;5.07;;;;;;;23.07;56.23;99626.88;7311188;19;130439;-38
2023/06/06 04:36:26;;;;;;;43.88;3.65;;;;;;;23.11;55.92;99637.88;7315908;19;130661;-39
2023/06/06 04:38:53;;;;;;;12.52;2.38;;;;;;;23.11;56.44;99635.25;7312906;19;129477;-41
2023/06/06 04:41:22;;;;;;;55.60;4.53;;;;;;;23.09;55.74;99639.81;7312170;19;129722;-40
2023/06/06 04:43:51;;;;;;;43.92;3.88;;;;;;;23.11;56.23;99630.03;7313933;19;129005;-40
2023/06/06 04:46:22;;;;;;;56.17;4.80;;;;;;;22.98;56.21;99624.31;7313579;19;129386;-40
2023/06/06 04:48:54;;;;;;;26.60;3.58;;;;;;;23.11;56.51;99630.03;7315233;19;129049;-41
2023/06/06 04:51:29;;;;;;;18.02;2.80;;;;;;;23.11;56.34;99635.25;7314195;19;128768;-40
2023/06/06 04:53:59;;;;;;;50.25;4.18;;;;;;;23.10;56.23;99634.47;7314482;19;131097;-39
2023/06/06 04:56:28;;;;;;;33.35;3.33;;;;;;;23.11;55.64;99640.50;7313193;19;129764;-42
2023/06/06 04:58:54;;;;;;;41.35;4.03;;;;;;;23.11;55.64;99633.47;7313158;19;129284;-41
2023/06/06 05:01:20;;;;;;;41.07;3.43;;;;;;;23.09;56.08;99637.19;7311034;19;130844;-41
2023/06/06 05:03:46;;;;;;;35.53;3.80;;;;;;;23.10;56.04;99633.63;7312707;19;130044;-41
2023/06/06 05:06:12;;;;;;;60.67;4.60;;;;;;;23.11;55.60;99630.84;7310491;19;129486;-38
2023/06/06 05:08:41;;;;;;;34.08;3.42;;;;;;;23.12;55.81;99637.75;7312695;19;129156;-39
2023/06/06 05:11:07;;;;;;;37.55;3.97;;;;;;;23.10;56.37;99636.25;7311103;19;129429;-41
2023/06/06 05:13:33;;;;;;;39.13;3.50;;;;;;;23.13;56.01;99633.31;7308957;19;130782;-41
2023/06/06 05:15:59;;;;;;;53.90;4.97;;;;;;;23.06;56.35;99622.59;7310715;19;129527;-42
2023/06/06 05:18:24;;;;;;;48.40;4.80;;;;;;;23.13;56.86;99638.56;7313493;19;128965;-41
2023/06/06 05:20:50;;;;;;;49.03;4.65;;;;;;;23.12;56.36;99647.44;7314687;19;129428;-40
2023/06/06 05:23:16;;;;;;;70.57;5.72;;;;;;;23.13;56.67;99638.56;7314043;19;129810;-40
2023/06/06 05:25:41;;;;;;;41.05;5.00;;;;;;;23.12;56.75;99639.56;7313020;19;130847;-41
2023/06/06 05:28:06;;;;;;;36.30;4.10;;;;;;;23.10;56.41;99644.13;7314560;19;128956;-41
2023/06/06 05:30:32;;;;;;;49.20;4.95;;;;;;;23.10;56.96;99638.88;7311101;19;129258;-41
2023/06/06 05:32:57;;;;;;;57.53;5.33;;;;;;;23.09;56.56;99642.44;7314060;19;129110;-40
2023/06/06 05:35:22;;;;;;;22.17;3.53;;;;;;;23.09;57.28;99637.19;7314264;19;129308;-38
2023/06/06 05:37:49;;;;;;;37.50;4.50;;;;;;;23.07;56.97;99639.97;7313128;19;129166;-41
2023/06/06 05:40:15;;;;;;;40.13;4.72;;;;;;;23.10;57.23;99644.94;7311792;19;129959;-37
2023/06/06 05:42:43;;;;;;;55.83;5.07;;;;;;;23.07;57.41;99642.59;7311104;19;130629;-42
2023/06/06 05:45:08;;;;;;;46.90;4.80;;;;;;;23.08;57.62;99640.81;7308077;19;129445;-40
2023/06/06 05:47:34;;;;;;;29.47;3.80;;;;;;;23.00;57.52;99632.88;7313075;19;129231;-42
2023/06/06 05:49:59;;;;;;;77.90;6.40;;;;;;;23.04;57.68;99644.69;7306676;19;130615;-39
2023/06/06 05:52:26;;;;;;;50.83;5.00;;;;;;;23.08;57.01;99646.06;7313171;19;129489;-40
2023/06/06 05:55:02;;;;;;;23.05;3.83;;;;;;;23.08;57.94;99646.06;7311687;19;129379;-39
2023/06/06 05:57:27;;;;;;;32.95;4.53;;;;;;;23.04;57.52;99656.00;7311470;19;129608;-41
2023/06/06 05:59:52;;;;;;;42.30;4.75;;;;;;;23.05;57.32;99652.44;7310522;19;129127;-41
2023/06/06 06:02:18;;;;;;;53.13;5.27;;;;;;;23.06;57.16;99648.00;7312087;19;129123;-40
2023/06/06 06:04:45;;;;;;;39.23;4.80;;;;;;;23.06;57.54;99648.00;7311135;19;128990;-39
2023/06/06 06:07:11;;;;;;;52.25;5.55;;;;;;;23.04;57.18;99649.94;7313266;19;128892;-41
2023/06/06 06:09:37;;;;;;;26.10;4.10;;;;;;;23.04;57.07;99649.94;7313380;19;129181;-41
2023/06/06 06:12:04;;;;;;;53.30;5.53;;;;;;;23.04;57.43;99656.00;7312840;19;129622;-40
2023/06/06 06:14:29;;;;;;;25.48;4.05;;;;;;;23.03;57.37;99648.28;7311545;19;129495;-40
2023/06/06 06:16:55;;;;;;;37.10;4.30;;;;;;;23.05;57.14;99651.59;7311032;19;129125;-42
2023/06/06 06:19:20;;;;;;;39.67;4.47;;;;;;;23.04;56.99;99655.19;7310780;19;129196;-39
2023/06/06 06:21:45;;;;;;;59.73;5.50;;;;;;;23.02;57.06;99646.66;7309816;19;129367;-42
2023/06/06 06:24:11;;;;;;;50.60;5.13;;;;;;;23.06;57.51;99650.63;7308414;19;129805;-42
2023/06/06 06:26:36;;;;;;;45.13;4.55;;;;;;;23.05;57.68;99656.84;7312873;19;129379;-40
2023/06/06 06:29:01;;;;;;;33.53;4.17;;;;;;;23.08;57.44;99653.94;7312923;19;129309;-42
2023/06/06 06:31:27;;;;;;;61.70;5.10;;;;;;;23.07;57.47;99660.16;7310596;19;129641;-41
2023/06/06 06:33:53;;;;;;;37.97;4.47;;;;;;;23.10;57.22;99654.59;7311298;19;130346;-41
2023/06/06 06:36:18;;;;;;;53.67;5.07;;;;;;;23.13;57.49;99665.63;7310224;19;129149;-42
2023/06/06 06:38:44;;;;;;;43.47;4.23;;;;;;;23.18;56.91;99662.56;7310642;19;128842;-42
2023/06/06 06:41:09;;;;;;;64.37;5.37;;;;;;;23.15;58.05;99657.63;7311796;19;129251;-42
2023/06/06 06:43:35;;;;;;;59.73;5.47;;;;;;;23.10;57.31;99649.38;7311807;19;129676;-42
2023/06/06 06:46:00;;;;;;;35.55;4.05;;;;;;;23.15;57.56;99657.63;7312559;19;128875;-41
2023/06/06 06:48:25;;;;;;;73.33;5.67;;;;;;;23.23;57.50;99662.94;7309239;19;129152;-40
2023/06/06 06:50:52;;;;;;;57.70;5.00;;;;;;;23.27;56.50;99663.50;7312079;19;129805;-40
2023/06/06 06:53:18;;;;;;;34.92;4.18;;;;;;;23.25;57.58;99663.63;7311204;19;129410;-39
2023/06/06 06:55:45;;;;;;;46.00;4.90;;;;;;;23.33;56.51;99665.53;7312008;19;129053;-42
2023/06/06 06:58:13;;;;;;;57.13;5.15;;;;;;;23.36;57.20;99670.47;7315702;19;129848;-42
2023/06/06 07:00:39;;;;;;;63.83;5.57;;;;;;;23.32;56.81;99671.75;7318355;19;130992;-42
2023/06/06 07:03:05;;;;;;;45.67;4.55;;;;;;;23.19;57.55;99653.69;7316459;19;129509;-39
2023/06/06 07:05:31;;;;;;;56.87;5.00;;;;;;;23.33;57.49;99674.22;7317036;19;129527;-42
2023/06/06 07:07:56;;;;;;;53.73;4.80;;;;;;;23.35;57.22;99669.66;7317313;19;128899;-40
2023/06/06 07:10:24;;;;;;;47.90;4.50;;;;;;;23.39;57.58;99671.00;7316834;19;130063;-41
2023/06/06 07:12:51;;;;;;;36.30;4.38;;;;;;;23.38;57.50;99674.59;7316472;19;129458;-41
2023/06/06 07:15:17;;;;;;;68.07;5.93;;;;;;;23.35;57.71;99669.66;7316371;19;130688;-40
2023/06/06 07:17:46;;;;;;;108.57;7.95;;;;;;;23.39;57.16;99675.44;7315235;19;130709;-41
2023/06/06 07:20:11;;;;;;;73.03;5.65;;;;;;;23.38;57.37;99674.59;7315483;19;129303;-41
2023/06/06 07:22:37;;;;;;;46.72;4.57;;;;;;;23.38;57.47;99677.22;7317841;19;129853;-41
2023/06/06 07:25:04;;;;;;;38.30;4.23;;;;;;;23.39;57.73;99681.50;7314774;19;129542;-40
2023/06/06 07:27:33;;;;;;;;;;;;;;;23.51;57.96;99676.84;7318839;19;128887;-40
2023/06/06 07:30:00;;;;;;;78.25;5.82;;;;;;;23.44;57.52;99671.38;7316012;19;129175;-40
2023/06/06 07:32:25;;;;;;;50.10;4.82;;;;;;;23.44;57.66;99679.25;7316189;19;130227;-42
2023/06/06 07:34:50;;;;;;;57.83;5.35;;;;;;;23.42;57.90;99673.31;7313604;19;128949;-42
2023/06/06 07:37:16;;;;;;;39.77;3.90;;;;;;;23.48;57.77;99680.63;7315717;19;129209;-42
2023/06/06 07:39:43;;;;;;;55.38;5.13;;;;;;;23.38;57.88;99684.28;7313012;19;130359;-41
2023/06/06 07:42:09;;;;;;;24.02;3.42;;;;;;;23.44;58.11;99681.88;7317067;19;130131;-41
2023/06/06 07:44:34;;;;;;;43.40;4.72;;;;;;;23.50;58.01;99678.66;7311361;19;131074;-41
2023/06/06 07:47:00;;;;;;;46.63;4.73;;;;;;;23.50;58.12;99678.66;7317253;19;129000;-40
2023/06/06 07:49:25;;;;;;;59.10;5.22;;;;;;;23.44;57.46;99673.16;7315886;19;129898;-42
2023/06/06 07:51:50;;;;;;;26.48;3.78;;;;;;;23.48;57.68;99677.16;7316265;19;129148;-41
2023/06/06 07:54:16;;;;;;;51.08;4.38;;;;;;;23.43;58.31;99667.13;7313680;19;130363;-40
2023/06/06 07:56:44;;;;;;;65.43;5.35;;;;;;;23.47;58.29;99668.44;7316500;19;129202;-41
2023/06/06 07:59:10;;;;;;;60.22;5.43;;;;;;;23.44;58.28;99658.25;7312460;19;129477;-40
2023/06/06 08:01:37;;;;;;;73.72;5.50;;;;;;;23.58;57.81;99663.00;7312199;19;129253;-38
2023/06/06 08:04:04;;;;;;;41.05;4.32;;;;;;;23.59;57.30;99654.13;7313104;19;129538;-40
2023/06/06 08:06:32;;;;;;;55.58;4.93;;;;;;;23.53;58.02;99661.78;7312860;19;129935;-42
2023/06/06 08:08:59;;;;;;;66.28;5.13;;;;;;;23.40;57.72;99646.44;7312986;19;129301;-38
2023/06/06 08:11:24;;;;;;;39.47;4.17;;;;;;;23.53;57.87;99657.38;7314505;19;129891;-39
2023/06/06 08:13:50;;;;;;;30.40;3.97;;;;;;;23.49;58.43;99671.75;7315536;19;129781;-39
2023/06/06 08:16:16;;;;;;;73.87;6.27;;;;;;;23.54;58.27;99664.25;7313966;19;128938;-40
2023/06/06 08:18:41;;;;;;;43.07;4.43;;;;;;;23.61;57.91;99665.31;7316077;19;129758;-41
2023/06/06 08:21:07;;;;;;;62.50;5.40;;;;;;;23.49;57.89;99645.50;7314604;19;129323;-41
2023/06/06 08:23:33;;;;;;;44.23;4.17;;;;;;;23.52;57.75;99666.19;7315696;19;129648;-41
2023/06/06 08:25:59;;;;;;;76.15;5.63;;;;;;;23.50;57.98;99662.94;7315973;19;129104;-40
2023/06/06 08:28:25;;;;;;;34.00;3.55;;;;;;;23.54;57.92;99663.41;7316853;19;129961;-40
2023/06/06 08:30:51;;;;;;;52.25;4.93;;;;;;;23.52;58.45;99671.44;7316194;19;129262;-42
2023/06/06 08:33:17;;;;;;;37.80;4.43;;;;;;;23.48;58.64;99664.88;7316771;19;129972;-42
2023/06/06 08:35:43;;;;;;;63.30;5.60;;;;;;;23.48;57.89;99664.88;7315884;19;129071;-39
2023/06/06 08:38:09;;;;;;;23.27;3.27;;;;;;;23.50;58.47;99668.16;7314984;19;130847;-42
2023/06/06 08:40:34;;;;;;;60.17;5.33;;;;;;;23.52;57.85;99660.94;7314955;19;129665;-41
2023/06/06 08:43:01;;;;;;;33.03;4.17;;;;;;;23.55;58.46;99660.66;7315008;19;128886;-40
2023/06/06 08:45:26;;;;;;;67.05;5.90;;;;;;;23.67;58.05;99658.66;7315867;19;129066;-39
2023/06/06 08:47:54;;;;;;;41.78;4.35;;;;;;;23.62;58.40;99655.66;7315013;19;129382;-40
2023/06/06 08:50:21;;;;;;;41.95;4.50;;;;;;;23.58;58.98;99660.38;7314595;19;129152;-40
2023/06/06 08:52:48;;;;;;;44.28;4.28;;;;;;;23.59;58.54;99662.00;7315229;19;129394;-40
2023/06/06 08:55:14;;;;;;;54.05;5.18;;;;;;;23.53;58.33;99660.00;7312755;19;128985;-41
2023/06/06 08:57:43;;;;;;;29.93;3.73;;;;;;;23.55;58.76;99660.66;7315116;19;130054;-39
2023/06/06 09:00:11;;;;;;;41.20;5.03;;;;;;;23.56;59.26;99662.31;7311868;19;129569;-40
2023/06/06 09:02:41;;;;;;;44.47;4.72;;;;;;;23.59;59.04;99662.00;7314366;19;130442;-38
2023/06/06 09:05:08;;;;;;;73.80;6.05;;;;;;;23.59;58.62;99663.78;7312760;19;129906;-41
2023/06/06 09:07:34;;;;;;;26.98;4.45;;;;;;;23.54;58.93;99664.25;7314364;19;129443;-42
2023/06/06 09:09:59;;;;;;;51.20;5.43;;;;;;;23.58;58.64;99664.78;7315383;19;129714;-41
2023/06/06 09:12:25;;;;;;;46.58;5.25;;;;;;;23.59;58.98;99663.78;7313611;19;128779;-39
2023/06/06 09:14:50;;;;;;;65.25;5.97;;;;;;;23.63;58.20;99663.38;7312160;19;129010;-40
2023/06/06 09:17:16;;;;;;;26.77;4.40;;;;;;;23.61;58.80;99667.09;7315637;19;129779;-42
2023/06/06 09:19:45;;;;;;;40.53;5.27;;;;;;;23.60;58.88;99663.63;7312311;19;129935;-40
2023/06/06 09:22:10;;;;;;;36.13;5.25;;;;;;;23.62;58.48;99672.19;7313619;19;129355;-42
2023/06/06 09:24:43;;;;;;;64.97;6.00;;;;;;;23.62;59.44;99676.66;7312425;19;129451;-41
2023/06/06 09:27:26;;;;;;;58.38;5.63;;;;;;;23.67;59.28;99679.63;7315015;19;130348;-41
2023/06/06 09:29:51;;;;;;;49.75;6.20;;;;;;;23.65;58.36;99676.34;7314772;19;129955;-40
2023/06/06 09:32:26;;;;;;;45.40;5.57;;;;;;;23.58;59.28;99678.75;7313751;19;129301;-39
2023/06/06 09:34:52;;;;;;;55.08;6.18;;;;;;;23.47;58.57;99659.78;7312071;19;129864;-37
2023/06/06 09:37:21;;;;;;;56.28;6.40;;;;;;;23.58;58.60;99676.13;7312822;19;129663;-41
2023/06/06 09:40:10;;;;;;;47.88;5.70;;;;;;;23.65;59.35;99661.38;7312378;19;129726;-41
2023/06/06 09:42:37;;;;;;;36.70;5.18;;;;;;;23.70;58.56;99664.38;7313340;19;129047;-39
2023/06/06 09:45:10;;;;;;;;;;;;;;;23.75;58.73;99662.13;7312025;19;129025;-42
2023/06/06 09:47:39;;;;;;;43.88;5.13;;;;;;;23.66;58.30;99663.06;7313205;19;129871;-40
2023/06/06 09:50:05;;;;;;;47.22;6.10;;;;;;;23.58;58.67;99663.00;7313845;19;129547;-42
2023/06/06 09:52:30;;;;;;;68.75;7.13;;;;;;;23.69;58.05;99662.75;7310002;19;129248;-40
2023/06/06 09:54:56;;;;;;;46.13;5.83;;;;;;;23.62;58.96;99666.94;7311568;19;128841;-40
2023/06/06 09:57:21;;;;;;;96.90;8.10;;;;;;;23.62;58.50;99666.94;7311836;19;129905;-41
2023/06/06 09:59:48;;;;;;;51.47;5.93;;;;;;;23.61;58.53;99665.31;7311403;19;129943;-41
2023/06/06 10:02:19;;;;;;;77.55;6.95;;;;;;;23.64;58.59;99669.41;7313042;19;129102;-40
2023/06/06 10:04:45;;;;;;;49.42;5.55;;;;;;;23.59;58.65;99664.63;7310574;19;129552;-41
2023/06/06 10:07:11;;;;;;;15.10;4.35;;;;;;;23.61;58.95;99662.69;7313220;19;130179;-38
2023/06/06 10:09:37;;;;;;;78.03;6.63;;;;;;;23.59;59.32;99667.25;7312019;19;130524;-40
2023/06/06 10:12:04;;;;;;;79.82;6.88;;;;;;;23.67;59.25;99669.13;7311955;19;129078;-40
2023/06/06 10:14:30;;;;;;;47.30;5.60;;;;;;;23.59;59.34;99662.00;7311360;19;129141;-40
2023/06/06 10:16:56;;;;;;;60.88;6.50;;;;;;;23.67;58.30;99667.31;7311096;19;129708;-40
2023/06/06 10:19:24;;;;;;;47.85;5.38;;;;;;;23.61;58.48;99659.22;7310770;19;129538;-42
2023/06/06 10:21:52;;;;;;;58.72;5.60;;;;;;;23.61;58.31;99660.06;7310390;19;129190;-41
2023/06/06 10:24:17;;;;;;;34.72;4.70;;;;;;;23.66;58.46;99657.81;7312666;19;129890;-38
2023/06/06 10:26:51;;;;;;;42.67;4.87;;;;;;;23.63;58.73;99652.03;7311401;19;129017;-42
2023/06/06 10:29:26;;;;;;;44.55;4.93;;;;;;;23.66;59.01;99657.81;7312288;19;129208;-42
2023/06/06 10:32:03;;;;;;;77.65;7.07;;;;;;;23.53;59.38;99636.38;7309957;19;129794;-41
2023/06/06 10:34:35;;;;;;;57.53;5.78;;;;;;;23.66;58.73;99649.09;7310479;19;129737;-40
2023/06/06 10:37:18;;;;;;;45.95;5.35;;;;;;;23.66;59.32;99652.56;7313794;19;129119;-41
2023/06/06 10:39:48;;;;;;;60.30;6.00;;;;;;;23.67;58.83;99648.13;7311441;19;129812;-40
2023/06/06 10:42:15;;;;;;;34.13;4.72;;;;;;;23.51;58.63;99643.56;7311948;19;131315;-42
2023/06/06 10:44:54;;;;;;;22.13;3.97;;;;;;;23.52;59.13;99639.94;7310431;19;129013;-41
2023/06/06 10:47:34;;;;;;;55.83;5.63;;;;;;;23.62;59.56;99656.44;7311782;19;129756;-39
2023/06/06 10:50:11;;;;;;;58.58;5.53;;;;;;;23.64;59.17;99665.00;7310409;19;129320;-40
2023/06/06 10:53:05;;;;;;;61.05;5.60;;;;;;;23.66;58.66;99664.84;7311292;19;129511;-41
2023/06/06 10:55:30;;;;;;;44.20;4.88;;;;;;;23.61;57.65;99654.81;7312724;19;129307;-39
2023/06/06 10:58:13;;;;;;;39.42;4.60;;;;;;;23.59;59.06;99662.00;7312842;19;130403;-40
2023/06/06 11:00:44;;;;;;;80.22;7.28;;;;;;;23.47;59.13;99641.41;7308330;19;129212;-40
2023/06/06 11:03:19;;;;;;;44.45;5.10;;;;;;;23.52;58.70;99650.44;7312116;19;128783;-41
2023/06/06 11:06:00;;;;;;;30.88;4.25;;;;;;;23.57;59.04;99658.69;7311608;19;128958;-40
2023/06/06 11:09:11;;;;;;;22.67;4.05;;;;;;;23.57;58.90;99658.69;7311840;19;129429;-41
2023/06/06 11:11:36;;;;;;;33.10;4.25;;;;;;;23.52;58.56;99665.41;7311225;19;129305;-39
2023/06/06 11:14:07;;;;;;;31.37;4.20;;;;;;;23.34;58.90;99639.13;7309695;19;129038;-39
2023/06/06 11:16:39;;;;;;;67.05;6.68;;;;;;;23.45;59.02;99657.31;7310078;19;129027;-39
2023/06/06 11:19:09;;;;;;;32.47;4.35;;;;;;;23.57;57.60;99661.31;7310612;19;129644;-39